sensor_id;sensor_type;location;lat;lon;timestamp;P1;durP1;ratioP1;P2;durP2;ratioP2
24357;SDS011;13668;52.154;5.580;2024-03-23T00:59:04;13.43;;;6.57;;
24357;SDS011;13668;52.154;5.580;2024-03-23T01:04:49;10.25;;;5.70;;
24357;SDS011;13668;52.154;5.580;2024-03-23T01:07:56;11.82;;;6.65;;
24357;SDS011;13668;52.154;5.580;2024-03-23T01:10:53;11.65;;;6.43;;
24357;SDS011;13668;52.154;5.580;2024-03-23T01:26:08;20.50;;;6.82;;
24357;SDS011;13668;52.154;5.580;2024-03-23T01:29:03;17.92;;;7.32;;
24357;SDS011;13668;52.154;5.580;2024-03-23T01:31:57;22.17;;;7.32;;
24357;SDS011;13668;52.154;5.580;2024-03-23T01:38:23;10.73;;;5.93;;
24357;SDS011;13668;52.154;5.580;2024-03-23T01:44:05;15.88;;;6.68;;
24357;SDS011;13668;52.154;5.580;2024-03-23T01:46:51;19.58;;;7.30;;
24357;SDS011;13668;52.154;5.580;2024-03-23T01:49:57;12.60;;;6.53;;
24357;SDS011;13668;52.154;5.580;2024-03-23T01:52:44;10.75;;;5.85;;
24357;SDS011;13668;52.154;5.580;2024-03-23T01:55:11;17.17;;;7.07;;
24357;SDS011;13668;52.154;5.580;2024-03-23T02:01:18;11.32;;;5.60;;
24357;SDS011;13668;52.154;5.580;2024-03-23T02:04:23;14.93;;;6.22;;
24357;SDS011;13668;52.154;5.580;2024-03-23T02:09:58;8.80;;;6.03;;
24357;SDS011;13668;52.154;5.580;2024-03-23T02:15:52;19.17;;;6.93;;
24357;SDS011;13668;52.154;5.580;2024-03-23T02:18:37;18.10;;;6.70;;
24357;SDS011;13668;52.154;5.580;2024-03-23T02:21:17;13.20;;;6.88;;
24357;SDS011;13668;52.154;5.580;2024-03-23T02:24:11;21.88;;;7.97;;
24357;SDS011;13668;52.154;5.580;2024-03-23T02:27:15;14.63;;;5.80;;
24357;SDS011;13668;52.154;5.580;2024-03-23T02:30:35;20.02;;;6.88;;
24357;SDS011;13668;52.154;5.580;2024-03-23T02:36:15;15.10;;;6.55;;
24357;SDS011;13668;52.154;5.580;2024-03-23T02:39:04;18.42;;;6.50;;
24357;SDS011;13668;52.154;5.580;2024-03-23T02:44:56;10.90;;;5.95;;
24357;SDS011;13668;52.154;5.580;2024-03-23T02:47:40;14.55;;;5.80;;
24357;SDS011;13668;52.154;5.580;2024-03-23T02:50:33;11.32;;;6.78;;
24357;SDS011;13668;52.154;5.580;2024-03-23T02:53:02;12.68;;;6.53;;
24357;SDS011;13668;52.154;5.580;2024-03-23T02:55:43;18.25;;;7.15;;
24357;SDS011;13668;52.154;5.580;2024-03-23T02:58:11;18.08;;;7.75;;
24357;SDS011;13668;52.154;5.580;2024-03-23T03:00:43;17.98;;;6.95;;
24357;SDS011;13668;52.154;5.580;2024-03-23T03:03:39;14.15;;;6.55;;
24357;SDS011;13668;52.154;5.580;2024-03-23T03:06:30;11.88;;;5.90;;
24357;SDS011;13668;52.154;5.580;2024-03-23T03:12:10;13.90;;;6.68;;
24357;SDS011;13668;52.154;5.580;2024-03-23T03:14:46;10.27;;;5.50;;
24357;SDS011;13668;52.154;5.580;2024-03-23T03:17:24;9.73;;;5.40;;
24357;SDS011;13668;52.154;5.580;2024-03-23T03:20:11;14.55;;;5.60;;
24357;SDS011;13668;52.154;5.580;2024-03-23T03:29:23;12.70;;;5.88;;
24357;SDS011;13668;52.154;5.580;2024-03-23T03:32:03;11.90;;;5.47;;
24357;SDS011;13668;52.154;5.580;2024-03-23T03:44:19;17.40;;;5.70;;
24357;SDS011;13668;52.154;5.580;2024-03-23T03:50:13;12.48;;;4.68;;
24357;SDS011;13668;52.154;5.580;2024-03-23T04:15:24;14.15;;;5.50;;
24357;SDS011;13668;52.154;5.580;2024-03-23T04:27:46;13.75;;;4.57;;
24357;SDS011;13668;52.154;5.580;2024-03-23T04:34:03;10.90;;;4.80;;
24357;SDS011;13668;52.154;5.580;2024-03-23T04:53:05;10.65;;;5.88;;
24357;SDS011;13668;52.154;5.580;2024-03-23T04:59:26;10.20;;;5.38;;
24357;SDS011;13668;52.154;5.580;2024-03-23T05:05:00;6.47;;;4.22;;
24357;SDS011;13668;52.154;5.580;2024-03-23T05:14:00;11.73;;;4.68;;
24357;SDS011;13668;52.154;5.580;2024-03-23T05:20:17;13.55;;;4.53;;
24357;SDS011;13668;52.154;5.580;2024-03-23T05:23:07;12.13;;;4.10;;
24357;SDS011;13668;52.154;5.580;2024-03-23T05:25:49;11.23;;;3.72;;
24357;SDS011;13668;52.154;5.580;2024-03-23T05:35:03;5.88;;;3.13;;
24357;SDS011;13668;52.154;5.580;2024-03-23T05:37:58;5.03;;;3.22;;
24357;SDS011;13668;52.154;5.580;2024-03-23T05:47:19;7.13;;;2.30;;
24357;SDS011;13668;52.154;5.580;2024-03-23T05:53:18;3.63;;;2.03;;
24357;SDS011;13668;52.154;5.580;2024-03-23T05:59:34;4.57;;;2.53;;
24357;SDS011;13668;52.154;5.580;2024-03-23T06:06:15;3.15;;;2.00;;
24357;SDS011;13668;52.154;5.580;2024-03-23T06:15:15;6.88;;;2.03;;
24357;SDS011;13668;52.154;5.580;2024-03-23T06:40:35;4.45;;;1.80;;
24357;SDS011;13668;52.154;5.580;2024-03-23T06:43:30;5.90;;;1.85;;
24357;SDS011;13668;52.154;5.580;2024-03-23T06:57:59;4.60;;;1.40;;
24357;SDS011;13668;52.154;5.580;2024-03-23T07:00:28;11.85;;;1.80;;
24357;SDS011;13668;52.154;5.580;2024-03-23T07:06:44;9.50;;;1.52;;
24357;SDS011;13668;52.154;5.580;2024-03-23T07:12:17;8.07;;;2.30;;
24357;SDS011;13668;52.154;5.580;2024-03-23T07:15:04;2.15;;;1.40;;
24357;SDS011;13668;52.154;5.580;2024-03-23T07:17:46;5.53;;;1.45;;
24357;SDS011;13668;52.154;5.580;2024-03-23T07:27:12;5.47;;;1.02;;
24357;SDS011;13668;52.154;5.580;2024-03-23T08:34:05;3.00;;;0.93;;
24357;SDS011;13668;52.154;5.580;2024-03-23T08:36:40;4.55;;;1.20;;
24357;SDS011;13668;52.154;5.580;2024-03-23T08:39:11;4.13;;;0.80;;
24357;SDS011;13668;52.154;5.580;2024-03-23T08:41:37;2.25;;;0.90;;
24357;SDS011;13668;52.154;5.580;2024-03-23T08:44:21;2.20;;;0.93;;
24357;SDS011;13668;52.154;5.580;2024-03-23T08:46:47;2.85;;;1.08;;
24357;SDS011;13668;52.154;5.580;2024-03-23T08:49:19;2.20;;;1.05;;
24357;SDS011;13668;52.154;5.580;2024-03-23T08:51:49;4.32;;;1.40;;
24357;SDS011;13668;52.154;5.580;2024-03-23T08:54:16;6.00;;;0.80;;
24357;SDS011;13668;52.154;5.580;2024-03-23T08:56:55;2.70;;;1.10;;
24357;SDS011;13668;52.154;5.580;2024-03-23T08:59:28;2.63;;;0.60;;
24357;SDS011;13668;52.154;5.580;2024-03-23T09:02:00;8.32;;;1.23;;
24357;SDS011;13668;52.154;5.580;2024-03-23T09:04:26;2.97;;;1.38;;
24357;SDS011;13668;52.154;5.580;2024-03-23T09:06:52;5.10;;;1.75;;
24357;SDS011;13668;52.154;5.580;2024-03-23T09:09:21;6.25;;;1.42;;
24357;SDS011;13668;52.154;5.580;2024-03-23T09:11:47;3.00;;;0.82;;
24357;SDS011;13668;52.154;5.580;2024-03-23T09:14:40;4.35;;;1.00;;
24357;SDS011;13668;52.154;5.580;2024-03-23T09:17:06;1.80;;;0.60;;
24357;SDS011;13668;52.154;5.580;2024-03-23T09:19:36;2.42;;;1.02;;
24357;SDS011;13668;52.154;5.580;2024-03-23T09:22:20;1.50;;;0.57;;
24357;SDS011;13668;52.154;5.580;2024-03-23T09:24:46;3.53;;;0.93;;
24357;SDS011;13668;52.154;5.580;2024-03-23T09:27:12;4.80;;;0.77;;
24357;SDS011;13668;52.154;5.580;2024-03-23T09:29:38;2.85;;;1.15;;
24357;SDS011;13668;52.154;5.580;2024-03-23T09:32:04;2.80;;;0.77;;
24357;SDS011;13668;52.154;5.580;2024-03-23T09:34:30;0.90;;;0.50;;
24357;SDS011;13668;52.154;5.580;2024-03-23T09:36:56;3.25;;;0.50;;
24357;SDS011;13668;52.154;5.580;2024-03-23T09:39:22;3.33;;;0.75;;
24357;SDS011;13668;52.154;5.580;2024-03-23T09:41:56;3.22;;;1.00;;
24357;SDS011;13668;52.154;5.580;2024-03-23T09:44:22;1.73;;;0.70;;
24357;SDS011;13668;52.154;5.580;2024-03-23T09:46:51;2.30;;;0.68;;
24357;SDS011;13668;52.154;5.580;2024-03-23T09:49:22;3.65;;;0.57;;
24357;SDS011;13668;52.154;5.580;2024-03-23T09:52:10;4.20;;;0.40;;
24357;SDS011;13668;52.154;5.580;2024-03-23T09:54:42;4.07;;;0.70;;
24357;SDS011;13668;52.154;5.580;2024-03-23T09:57:26;2.97;;;0.98;;
24357;SDS011;13668;52.154;5.580;2024-03-23T09:59:55;3.63;;;0.88;;
24357;SDS011;13668;52.154;5.580;2024-03-23T10:02:24;4.47;;;1.13;;
24357;SDS011;13668;52.154;5.580;2024-03-23T10:04:50;0.98;;;0.40;;
24357;SDS011;13668;52.154;5.580;2024-03-23T10:10:15;1.08;;;0.60;;
24357;SDS011;13668;52.154;5.580;2024-03-23T10:12:57;1.88;;;0.70;;
24357;SDS011;13668;52.154;5.580;2024-03-23T10:15:23;4.03;;;0.85;;
24357;SDS011;13668;52.154;5.580;2024-03-23T10:17:50;5.82;;;1.02;;
24357;SDS011;13668;52.154;5.580;2024-03-23T10:20:20;4.72;;;1.00;;
24357;SDS011;13668;52.154;5.580;2024-03-23T10:23:00;5.45;;;1.05;;
24357;SDS011;13668;52.154;5.580;2024-03-23T10:25:40;4.15;;;1.10;;
24357;SDS011;13668;52.154;5.580;2024-03-23T10:28:27;2.03;;;0.80;;
24357;SDS011;13668;52.154;5.580;2024-03-23T10:31:06;3.97;;;1.00;;
24357;SDS011;13668;52.154;5.580;2024-03-23T10:33:59;4.10;;;0.90;;
24357;SDS011;13668;52.154;5.580;2024-03-23T10:36:48;3.42;;;1.13;;
24357;SDS011;13668;52.154;5.580;2024-03-23T10:39:17;5.20;;;1.63;;
24357;SDS011;13668;52.154;5.580;2024-03-23T10:41:50;3.25;;;0.80;;
24357;SDS011;13668;52.154;5.580;2024-03-23T10:44:38;2.85;;;1.00;;
24357;SDS011;13668;52.154;5.580;2024-03-23T10:47:06;3.65;;;0.73;;
24357;SDS011;13668;52.154;5.580;2024-03-23T10:49:35;3.00;;;1.27;;
24357;SDS011;13668;52.154;5.580;2024-03-23T10:52:19;3.75;;;0.70;;
24357;SDS011;13668;52.154;5.580;2024-03-23T10:54:49;4.72;;;1.27;;
24357;SDS011;13668;52.154;5.580;2024-03-23T10:57:30;1.75;;;0.82;;
24357;SDS011;13668;52.154;5.580;2024-03-23T10:59:57;7.50;;;1.02;;
24357;SDS011;13668;52.154;5.580;2024-03-23T11:02:33;6.45;;;1.35;;
24357;SDS011;13668;52.154;5.580;2024-03-23T11:05:04;5.47;;;1.63;;
24357;SDS011;13668;52.154;5.580;2024-03-23T11:07:58;3.58;;;0.50;;
24357;SDS011;13668;52.154;5.580;2024-03-23T11:16:24;3.45;;;0.90;;
24357;SDS011;13668;52.154;5.580;2024-03-23T11:21:52;6.85;;;1.50;;
24357;SDS011;13668;52.154;5.580;2024-03-23T11:24:21;3.70;;;1.00;;
24357;SDS011;13668;52.154;5.580;2024-03-23T11:26:49;5.20;;;1.13;;
24357;SDS011;13668;52.154;5.580;2024-03-23T11:32:25;3.28;;;0.98;;
24357;SDS011;13668;52.154;5.580;2024-03-23T11:35:26;3.58;;;0.88;;
24357;SDS011;13668;52.154;5.580;2024-03-23T11:40:34;2.45;;;0.90;;
24357;SDS011;13668;52.154;5.580;2024-03-23T11:43:03;2.53;;;1.20;;
24357;SDS011;13668;52.154;5.580;2024-03-23T11:45:33;4.72;;;1.13;;
24357;SDS011;13668;52.154;5.580;2024-03-23T11:48:10;3.47;;;1.30;;
24357;SDS011;13668;52.154;5.580;2024-03-23T11:50:37;5.18;;;0.98;;
24357;SDS011;13668;52.154;5.580;2024-03-23T11:53:50;2.60;;;0.73;;
24357;SDS011;13668;52.154;5.580;2024-03-23T11:56:00;5.32;;;1.15;;
24357;SDS011;13668;52.154;5.580;2024-03-23T11:58:27;1.88;;;0.60;;
24357;SDS011;13668;52.154;5.580;2024-03-23T12:00:57;3.80;;;0.80;;
24357;SDS011;13668;52.154;5.580;2024-03-23T12:03:23;2.50;;;1.00;;
24357;SDS011;13668;52.154;5.580;2024-03-23T12:06:02;3.03;;;1.00;;
24357;SDS011;13668;52.154;5.580;2024-03-23T12:13:39;2.97;;;0.80;;
24357;SDS011;13668;52.154;5.580;2024-03-23T12:18:37;6.28;;;0.90;;
24357;SDS011;13668;52.154;5.580;2024-03-23T12:21:03;4.50;;;0.70;;
24357;SDS011;13668;52.154;5.580;2024-03-23T12:23:29;5.90;;;0.70;;
24357;SDS011;13668;52.154;5.580;2024-03-23T12:25:55;5.50;;;0.65;;
24357;SDS011;13668;52.154;5.580;2024-03-23T12:28:21;4.07;;;1.23;;
24357;SDS011;13668;52.154;5.580;2024-03-23T12:30:47;4.03;;;0.90;;
24357;SDS011;13668;52.154;5.580;2024-03-23T12:33:14;6.38;;;1.00;;
24357;SDS011;13668;52.154;5.580;2024-03-23T12:35:40;3.42;;;1.25;;
24357;SDS011;13668;52.154;5.580;2024-03-23T12:38:06;1.35;;;0.68;;
24357;SDS011;13668;52.154;5.580;2024-03-23T12:40:32;4.07;;;0.90;;
24357;SDS011;13668;52.154;5.580;2024-03-23T12:43:06;2.17;;;0.57;;
24357;SDS011;13668;52.154;5.580;2024-03-23T12:45:35;4.55;;;0.77;;
24357;SDS011;13668;52.154;5.580;2024-03-23T12:48:01;3.03;;;0.80;;
24357;SDS011;13668;52.154;5.580;2024-03-23T12:50:27;3.25;;;0.45;;
24357;SDS011;13668;52.154;5.580;2024-03-23T12:52:53;2.15;;;0.77;;
24357;SDS011;13668;52.154;5.580;2024-03-23T12:55:19;1.33;;;0.73;;
24357;SDS011;13668;52.154;5.580;2024-03-23T12:57:48;1.50;;;0.60;;
24357;SDS011;13668;52.154;5.580;2024-03-23T13:00:14;3.83;;;0.90;;
24357;SDS011;13668;52.154;5.580;2024-03-23T13:02:41;4.13;;;0.82;;
24357;SDS011;13668;52.154;5.580;2024-03-23T13:05:10;3.00;;;1.00;;
24357;SDS011;13668;52.154;5.580;2024-03-23T13:07:38;4.10;;;0.90;;
24357;SDS011;13668;52.154;5.580;2024-03-23T13:10:05;5.63;;;0.82;;
24357;SDS011;13668;52.154;5.580;2024-03-23T13:12:41;3.90;;;1.00;;
24357;SDS011;13668;52.154;5.580;2024-03-23T13:15:07;6.13;;;1.30;;
24357;SDS011;13668;52.154;5.580;2024-03-23T13:17:34;6.50;;;0.95;;
24357;SDS011;13668;52.154;5.580;2024-03-23T13:20:00;2.80;;;0.77;;
24357;SDS011;13668;52.154;5.580;2024-03-23T13:22:26;4.63;;;0.70;;
24357;SDS011;13668;52.154;5.580;2024-03-23T13:24:52;0.90;;;0.60;;
24357;SDS011;13668;52.154;5.580;2024-03-23T13:27:20;4.05;;;0.75;;
24357;SDS011;13668;52.154;5.580;2024-03-23T13:29:46;2.25;;;0.77;;
24357;SDS011;13668;52.154;5.580;2024-03-23T13:32:12;3.22;;;0.65;;
24357;SDS011;13668;52.154;5.580;2024-03-23T13:34:38;3.67;;;0.60;;
24357;SDS011;13668;52.154;5.580;2024-03-23T13:37:05;2.45;;;0.63;;
24357;SDS011;13668;52.154;5.580;2024-03-23T13:39:32;4.05;;;0.68;;
24357;SDS011;13668;52.154;5.580;2024-03-23T13:41:58;0.70;;;0.32;;
24357;SDS011;13668;52.154;5.580;2024-03-23T13:44:24;1.35;;;0.90;;
24357;SDS011;13668;52.154;5.580;2024-03-23T13:46:50;1.00;;;0.30;;
24357;SDS011;13668;52.154;5.580;2024-03-23T13:51:50;0.95;;;0.22;;
24357;SDS011;13668;52.154;5.580;2024-03-23T13:54:16;1.75;;;0.20;;
24357;SDS011;13668;52.154;5.580;2024-03-23T13:56:42;0.50;;;0.10;;
24357;SDS011;13668;52.154;5.580;2024-03-23T13:59:09;0.63;;;0.60;;
24357;SDS011;13668;52.154;5.580;2024-03-23T14:01:35;0.80;;;0.25;;
24357;SDS011;13668;52.154;5.580;2024-03-23T14:04:01;2.72;;;0.63;;
24357;SDS011;13668;52.154;5.580;2024-03-23T14:06:27;0.90;;;0.50;;
24357;SDS011;13668;52.154;5.580;2024-03-23T14:08:53;3.45;;;0.60;;
24357;SDS011;13668;52.154;5.580;2024-03-23T14:11:19;3.40;;;0.80;;
24357;SDS011;13668;52.154;5.580;2024-03-23T14:13:45;2.90;;;0.77;;
24357;SDS011;13668;52.154;5.580;2024-03-23T14:16:11;4.63;;;0.70;;
24357;SDS011;13668;52.154;5.580;2024-03-23T14:18:37;3.47;;;0.95;;
24357;SDS011;13668;52.154;5.580;2024-03-23T14:21:03;2.53;;;0.30;;
24357;SDS011;13668;52.154;5.580;2024-03-23T14:23:30;3.65;;;0.60;;
24357;SDS011;13668;52.154;5.580;2024-03-23T14:25:59;2.70;;;0.80;;
24357;SDS011;13668;52.154;5.580;2024-03-23T14:28:25;3.35;;;0.93;;
24357;SDS011;13668;52.154;5.580;2024-03-23T14:30:52;6.88;;;0.60;;
24357;SDS011;13668;52.154;5.580;2024-03-23T14:33:20;3.42;;;1.23;;
24357;SDS011;13668;52.154;5.580;2024-03-23T14:35:53;3.28;;;0.93;;
24357;SDS011;13668;52.154;5.580;2024-03-23T14:38:19;1.50;;;0.63;;
24357;SDS011;13668;52.154;5.580;2024-03-23T14:40:45;4.35;;;0.95;;
24357;SDS011;13668;52.154;5.580;2024-03-23T14:43:12;2.65;;;0.60;;
24357;SDS011;13668;52.154;5.580;2024-03-23T14:45:45;6.60;;;0.85;;
24357;SDS011;13668;52.154;5.580;2024-03-23T14:48:14;2.83;;;0.95;;
24357;SDS011;13668;52.154;5.580;2024-03-23T14:50:40;3.10;;;0.90;;
24357;SDS011;13668;52.154;5.580;2024-03-23T14:53:07;4.15;;;0.50;;
24357;SDS011;13668;52.154;5.580;2024-03-23T14:55:34;1.45;;;0.57;;
24357;SDS011;13668;52.154;5.580;2024-03-23T14:58:00;2.50;;;0.80;;
24357;SDS011;13668;52.154;5.580;2024-03-23T15:00:26;6.10;;;0.90;;
24357;SDS011;13668;52.154;5.580;2024-03-23T15:02:52;2.80;;;0.60;;
24357;SDS011;13668;52.154;5.580;2024-03-23T15:05:18;5.72;;;1.25;;
24357;SDS011;13668;52.154;5.580;2024-03-23T15:07:44;2.78;;;0.50;;
24357;SDS011;13668;52.154;5.580;2024-03-23T15:10:10;1.85;;;0.68;;
24357;SDS011;13668;52.154;5.580;2024-03-23T15:12:36;1.63;;;0.50;;
24357;SDS011;13668;52.154;5.580;2024-03-23T15:15:02;1.50;;;0.70;;
24357;SDS011;13668;52.154;5.580;2024-03-23T15:17:28;2.25;;;1.13;;
24357;SDS011;13668;52.154;5.580;2024-03-23T15:19:59;0.82;;;0.47;;
24357;SDS011;13668;52.154;5.580;2024-03-23T15:22:25;3.22;;;1.08;;
24357;SDS011;13668;52.154;5.580;2024-03-23T15:24:51;5.35;;;1.13;;
24357;SDS011;13668;52.154;5.580;2024-03-23T15:27:17;4.90;;;0.73;;
24357;SDS011;13668;52.154;5.580;2024-03-23T15:29:43;1.48;;;0.50;;
24357;SDS011;13668;52.154;5.580;2024-03-23T15:32:10;2.92;;;0.90;;
24357;SDS011;13668;52.154;5.580;2024-03-23T15:34:37;4.55;;;1.10;;
24357;SDS011;13668;52.154;5.580;2024-03-23T15:37:03;1.73;;;0.52;;
24357;SDS011;13668;52.154;5.580;2024-03-23T15:39:29;2.22;;;0.63;;
24357;SDS011;13668;52.154;5.580;2024-03-23T15:41:55;5.07;;;0.80;;
24357;SDS011;13668;52.154;5.580;2024-03-23T15:44:21;2.95;;;0.52;;
24357;SDS011;13668;52.154;5.580;2024-03-23T15:46:47;3.05;;;0.55;;
24357;SDS011;13668;52.154;5.580;2024-03-23T15:49:13;2.63;;;0.95;;
24357;SDS011;13668;52.154;5.580;2024-03-23T15:51:39;2.90;;;1.02;;
24357;SDS011;13668;52.154;5.580;2024-03-23T15:54:06;2.97;;;1.00;;
24357;SDS011;13668;52.154;5.580;2024-03-23T15:56:33;2.85;;;1.65;;
24357;SDS011;13668;52.154;5.580;2024-03-23T15:58:58;0.63;;;0.50;;
24357;SDS011;13668;52.154;5.580;2024-03-23T16:01:30;2.65;;;0.65;;
24357;SDS011;13668;52.154;5.580;2024-03-23T16:03:58;1.30;;;0.50;;
24357;SDS011;13668;52.154;5.580;2024-03-23T16:06:24;1.65;;;0.52;;
24357;SDS011;13668;52.154;5.580;2024-03-23T16:08:50;0.80;;;0.50;;
24357;SDS011;13668;52.154;5.580;2024-03-23T16:11:17;4.70;;;0.70;;
24357;SDS011;13668;52.154;5.580;2024-03-23T16:13:43;3.90;;;0.75;;
24357;SDS011;13668;52.154;5.580;2024-03-23T16:16:09;5.38;;;1.95;;
24357;SDS011;13668;52.154;5.580;2024-03-23T16:18:35;4.90;;;1.42;;
24357;SDS011;13668;52.154;5.580;2024-03-23T16:21:02;4.80;;;2.15;;
24357;SDS011;13668;52.154;5.580;2024-03-23T16:23:29;4.07;;;1.25;;
24357;SDS011;13668;52.154;5.580;2024-03-23T16:25:55;4.00;;;0.93;;
24357;SDS011;13668;52.154;5.580;2024-03-23T16:28:24;0.82;;;0.70;;
24357;SDS011;13668;52.154;5.580;2024-03-23T16:30:54;1.23;;;0.50;;
24357;SDS011;13668;52.154;5.580;2024-03-23T16:33:20;2.97;;;1.15;;
24357;SDS011;13668;52.154;5.580;2024-03-23T16:35:56;0.98;;;0.90;;
24357;SDS011;13668;52.154;5.580;2024-03-23T16:38:22;1.95;;;0.85;;
24357;SDS011;13668;52.154;5.580;2024-03-23T16:41:01;4.78;;;1.35;;
24357;SDS011;13668;52.154;5.580;2024-03-23T16:43:27;2.88;;;0.80;;
24357;SDS011;13668;52.154;5.580;2024-03-23T16:48:39;1.30;;;0.80;;
24357;SDS011;13668;52.154;5.580;2024-03-23T16:51:05;2.05;;;1.08;;
24357;SDS011;13668;52.154;5.580;2024-03-23T16:53:31;1.33;;;0.80;;
24357;SDS011;13668;52.154;5.580;2024-03-23T16:55:58;2.42;;;0.70;;
24357;SDS011;13668;52.154;5.580;2024-03-23T16:58:32;3.60;;;0.70;;
24357;SDS011;13668;52.154;5.580;2024-03-23T17:01:04;0.95;;;0.90;;
24357;SDS011;13668;52.154;5.580;2024-03-23T17:03:34;0.93;;;0.63;;
24357;SDS011;13668;52.154;5.580;2024-03-23T17:06:06;0.70;;;0.70;;
24357;SDS011;13668;52.154;5.580;2024-03-23T17:08:32;3.33;;;0.80;;
24357;SDS011;13668;52.154;5.580;2024-03-23T17:10:59;2.63;;;0.57;;
24357;SDS011;13668;52.154;5.580;2024-03-23T17:13:26;1.92;;;0.68;;
24357;SDS011;13668;52.154;5.580;2024-03-23T17:15:52;1.85;;;0.70;;
24357;SDS011;13668;52.154;5.580;2024-03-23T17:18:18;1.40;;;1.20;;
24357;SDS011;13668;52.154;5.580;2024-03-23T17:20:44;1.98;;;1.45;;
24357;SDS011;13668;52.154;5.580;2024-03-23T17:23:10;0.95;;;0.38;;
24357;SDS011;13668;52.154;5.580;2024-03-23T17:25:36;1.00;;;0.63;;
24357;SDS011;13668;52.154;5.580;2024-03-23T17:28:11;2.85;;;0.57;;
24357;SDS011;13668;52.154;5.580;2024-03-23T17:30:38;2.03;;;0.38;;
24357;SDS011;13668;52.154;5.580;2024-03-23T17:33:06;1.35;;;0.80;;
24357;SDS011;13668;52.154;5.580;2024-03-23T17:35:32;2.05;;;0.63;;
24357;SDS011;13668;52.154;5.580;2024-03-23T17:37:59;1.25;;;0.57;;
24357;SDS011;13668;52.154;5.580;2024-03-23T17:40:25;3.15;;;1.80;;
24357;SDS011;13668;52.154;5.580;2024-03-23T17:42:51;7.25;;;4.10;;
24357;SDS011;13668;52.154;5.580;2024-03-23T17:45:17;4.60;;;2.70;;
24357;SDS011;13668;52.154;5.580;2024-03-23T17:47:43;2.97;;;1.50;;
24357;SDS011;13668;52.154;5.580;2024-03-23T17:50:09;5.57;;;3.20;;
24357;SDS011;13668;52.154;5.580;2024-03-23T17:52:42;1.85;;;1.58;;
24357;SDS011;13668;52.154;5.580;2024-03-23T17:55:15;1.40;;;0.50;;
24357;SDS011;13668;52.154;5.580;2024-03-23T17:57:41;1.17;;;0.70;;
24357;SDS011;13668;52.154;5.580;2024-03-23T18:00:07;2.45;;;0.82;;
24357;SDS011;13668;52.154;5.580;2024-03-23T18:02:34;1.55;;;0.65;;
24357;SDS011;13668;52.154;5.580;2024-03-23T18:05:00;1.30;;;0.65;;
24357;SDS011;13668;52.154;5.580;2024-03-23T18:07:25;1.02;;;0.50;;
24357;SDS011;13668;52.154;5.580;2024-03-23T18:09:52;0.88;;;0.68;;
24357;SDS011;13668;52.154;5.580;2024-03-23T18:12:18;1.20;;;0.73;;
24357;SDS011;13668;52.154;5.580;2024-03-23T18:14:45;1.88;;;0.80;;
24357;SDS011;13668;52.154;5.580;2024-03-23T18:17:11;1.52;;;0.90;;
24357;SDS011;13668;52.154;5.580;2024-03-23T18:19:37;1.60;;;0.80;;
24357;SDS011;13668;52.154;5.580;2024-03-23T18:22:03;1.38;;;0.90;;
24357;SDS011;13668;52.154;5.580;2024-03-23T18:24:29;2.00;;;1.60;;
24357;SDS011;13668;52.154;5.580;2024-03-23T18:26:55;3.83;;;1.60;;
24357;SDS011;13668;52.154;5.580;2024-03-23T18:29:21;2.92;;;2.10;;
24357;SDS011;13668;52.154;5.580;2024-03-23T18:31:48;5.15;;;2.88;;
24357;SDS011;13668;52.154;5.580;2024-03-23T18:34:15;5.28;;;3.38;;
24357;SDS011;13668;52.154;5.580;2024-03-23T18:36:41;6.15;;;3.05;;
24357;SDS011;13668;52.154;5.580;2024-03-23T18:39:07;6.70;;;2.47;;
24357;SDS011;13668;52.154;5.580;2024-03-23T18:41:33;3.28;;;2.28;;
24357;SDS011;13668;52.154;5.580;2024-03-23T18:43:59;4.57;;;3.45;;
24357;SDS011;13668;52.154;5.580;2024-03-23T18:46:25;6.97;;;3.97;;
24357;SDS011;13668;52.154;5.580;2024-03-23T18:48:51;5.05;;;2.55;;
24357;SDS011;13668;52.154;5.580;2024-03-23T18:51:18;4.38;;;2.88;;
24357;SDS011;13668;52.154;5.580;2024-03-23T18:53:45;5.70;;;2.40;;
24357;SDS011;13668;52.154;5.580;2024-03-23T18:56:11;4.43;;;2.47;;
24357;SDS011;13668;52.154;5.580;2024-03-23T18:58:37;3.08;;;2.20;;
24357;SDS011;13668;52.154;5.580;2024-03-23T19:01:03;7.78;;;2.13;;
24357;SDS011;13668;52.154;5.580;2024-03-23T19:03:30;3.70;;;2.58;;
24357;SDS011;13668;52.154;5.580;2024-03-23T19:05:57;3.22;;;1.90;;
24357;SDS011;13668;52.154;5.580;2024-03-23T19:08:23;2.75;;;1.98;;
24357;SDS011;13668;52.154;5.580;2024-03-23T19:10:53;6.25;;;2.60;;
24357;SDS011;13668;52.154;5.580;2024-03-23T19:13:19;4.25;;;1.70;;
24357;SDS011;13668;52.154;5.580;2024-03-23T19:15:45;5.22;;;1.65;;
24357;SDS011;13668;52.154;5.580;2024-03-23T19:18:11;1.95;;;1.35;;
24357;SDS011;13668;52.154;5.580;2024-03-23T19:20:37;2.13;;;1.20;;
24357;SDS011;13668;52.154;5.580;2024-03-23T19:23:03;2.00;;;1.33;;
24357;SDS011;13668;52.154;5.580;2024-03-23T19:25:29;1.63;;;1.50;;
24357;SDS011;13668;52.154;5.580;2024-03-23T19:27:59;2.67;;;1.30;;
24357;SDS011;13668;52.154;5.580;2024-03-23T19:30:26;2.67;;;1.70;;
24357;SDS011;13668;52.154;5.580;2024-03-23T19:32:52;2.97;;;1.88;;
24357;SDS011;13668;52.154;5.580;2024-03-23T19:35:20;2.55;;;1.88;;
24357;SDS011;13668;52.154;5.580;2024-03-23T19:37:46;5.15;;;2.15;;
24357;SDS011;13668;52.154;5.580;2024-03-23T19:40:14;3.25;;;2.47;;
24357;SDS011;13668;52.154;5.580;2024-03-23T19:42:40;4.97;;;2.38;;
24357;SDS011;13668;52.154;5.580;2024-03-23T19:45:06;4.68;;;2.10;;
24357;SDS011;13668;52.154;5.580;2024-03-23T19:47:32;4.63;;;2.40;;
24357;SDS011;13668;52.154;5.580;2024-03-23T19:49:58;8.02;;;4.40;;
24357;SDS011;13668;52.154;5.580;2024-03-23T19:52:24;3.85;;;2.28;;
24357;SDS011;13668;52.154;5.580;2024-03-23T19:54:50;3.42;;;2.42;;
24357;SDS011;13668;52.154;5.580;2024-03-23T19:57:16;2.70;;;2.28;;
24357;SDS011;13668;52.154;5.580;2024-03-23T19:59:42;4.60;;;1.77;;
24357;SDS011;13668;52.154;5.580;2024-03-23T20:02:08;2.67;;;2.42;;
24357;SDS011;13668;52.154;5.580;2024-03-23T20:04:34;3.13;;;1.77;;
24357;SDS011;13668;52.154;5.580;2024-03-23T20:06:59;4.60;;;1.60;;
24357;SDS011;13668;52.154;5.580;2024-03-23T20:09:25;4.35;;;1.83;;
24357;SDS011;13668;52.154;5.580;2024-03-23T20:11:54;1.40;;;1.17;;
24357;SDS011;13668;52.154;5.580;2024-03-23T20:14:20;4.60;;;1.75;;
24357;SDS011;13668;52.154;5.580;2024-03-23T20:16:46;3.72;;;2.00;;
24357;SDS011;13668;52.154;5.580;2024-03-23T20:19:12;2.22;;;1.92;;
24357;SDS011;13668;52.154;5.580;2024-03-23T20:21:37;4.10;;;1.95;;
24357;SDS011;13668;52.154;5.580;2024-03-23T20:24:07;5.18;;;2.50;;
24357;SDS011;13668;52.154;5.580;2024-03-23T20:26:33;3.80;;;2.10;;
24357;SDS011;13668;52.154;5.580;2024-03-23T20:28:59;2.22;;;2.03;;
24357;SDS011;13668;52.154;5.580;2024-03-23T20:31:25;4.30;;;1.50;;
24357;SDS011;13668;52.154;5.580;2024-03-23T20:33:50;1.92;;;1.55;;
24357;SDS011;13668;52.154;5.580;2024-03-23T20:36:18;2.15;;;1.48;;
24357;SDS011;13668;52.154;5.580;2024-03-23T20:38:44;4.07;;;1.70;;
24357;SDS011;13668;52.154;5.580;2024-03-23T20:41:10;3.30;;;1.90;;
24357;SDS011;13668;52.154;5.580;2024-03-23T20:43:37;3.65;;;1.52;;
24357;SDS011;13668;52.154;5.580;2024-03-23T20:46:10;9.40;;;1.83;;
24357;SDS011;13668;52.154;5.580;2024-03-23T20:48:36;3.35;;;1.70;;
24357;SDS011;13668;52.154;5.580;2024-03-23T20:51:05;2.22;;;1.45;;
24357;SDS011;13668;52.154;5.580;2024-03-23T20:53:33;5.85;;;1.33;;
24357;SDS011;13668;52.154;5.580;2024-03-23T20:55:59;2.08;;;1.33;;
24357;SDS011;13668;52.154;5.580;2024-03-23T20:58:26;1.38;;;1.20;;
24357;SDS011;13668;52.154;5.580;2024-03-23T21:00:53;3.95;;;2.40;;
24357;SDS011;13668;52.154;5.580;2024-03-23T21:03:19;1.02;;;0.95;;
24357;SDS011;13668;52.154;5.580;2024-03-23T21:05:45;3.00;;;1.10;;
24357;SDS011;13668;52.154;5.580;2024-03-23T21:08:11;1.60;;;1.40;;
24357;SDS011;13668;52.154;5.580;2024-03-23T21:10:38;2.20;;;1.10;;